PST,Max TemperatureF,Mean TemperatureF,Min TemperatureF,Max Dew PointF,MeanDew PointF,Min DewpointF,Max Humidity, Mean Humidity, Min Humidity, Max Sea Level PressureIn, Mean Sea Level PressureIn, Min Sea Level PressureIn, Max VisibilityMiles, Mean VisibilityMiles, Min VisibilityMiles, Max Wind SpeedMPH, Mean Wind SpeedMPH, Max Gust SpeedMPH,PrecipitationIn, CloudCover, Events, WindDirDegrees
2012-12-1,51,45,39,43,38,34,100,83,61,29.85,29.70,29.44,10,10,6,35,12,47,0.19,8,Rain,204
2012-12-2,47,38,29,43,33,26,92,79,53,30.07,29.67,29.34,10,9,4,35,13,47,0.80,5,Rain,243
2012-12-3,45,35,25,32,29,24,92,74,53,30.20,30.10,29.98,10,9,7,25,8,30,0.04,5,Rain,168
2012-12-4,46,42,37,39,36,33,89,80,70,30.05,30.03,30.01,10,9,7,24,15,31,0.13,8,Rain,163
2012-12-5,51,41,30,42,37,30,100,88,61,30.14,30.09,30.04,10,10,7,14,4,17,0.04,6,Rain,241
2012-12-6,42,33,23,32,29,21,100,92,60,30.25,30.15,30.11,10,4,0,12,3,16,0.00,5,Fog,251
2012-12-7,41,30,18,28,23,17,100,83,50,30.26,30.21,30.14,10,10,10,13,2,17,0.00,2,,217
2012-12-8,40,30,20,28,23,18,96,80,54,30.30,30.23,30.14,10,10,7,10,2,13,0.00,5,,295
2012-12-9,45,35,24,31,27,24,100,82,53,30.43,30.37,30.28,10,9,7,8,1,9,0.00,4,,140
2012-12-10,44,33,21,36,27,19,100,92,70,30.47,30.36,30.22,10,8,4,6,1,7,0.00,3,Fog,342
2012-12-11,41,33,24,33,28,21,100,94,64,30.22,29.91,29.65,10,3,0,18,3,23,0.02,6,Fog-Rain-Snow,238
2012-12-12,37,29,21,30,24,20,100,87,64,29.92,29.79,29.66,10,10,7,13,4,14,0.00,5,,273
2012-12-13,36,27,17,24,20,15,96,84,52,29.99,29.92,29.83,10,10,10,8,3,12,0.00,1,,349
2012-12-14,32,23,13,29,21,10,96,89,78,30.03,29.87,29.74,10,8,1,14,2,17,0.01,5,Snow,253
2012-12-15,31,21,10,28,20,8,100,90,78,30.02,29.90,29.76,10,7,1,13,4,15,0.02,6,Snow,166
2012-12-16,41,36,30,33,29,26,92,85,70,29.89,29.77,29.50,10,4,0,37,14,46,0.02,8,Fog-Rain-Snow,182
2012-12-17,40,25,9,34,28,9,96,88,75,30.04,29.80,29.54,10,5,0,38,13,49,0.14,6,Rain-Snow,267
2012-12-18,28,16,4,20,13,3,100,89,68,30.20,30.02,29.91,10,8,0,15,4,18,T,5,Fog-Snow,243
2012-12-19,32,18,3,20,13,1,92,73,58,30.26,30.15,30.02,10,10,7,36,11,44,0.00,6,,144
2012-12-20,33,30,27,26,21,13,78,69,53,30.00,29.87,29.81,10,8,2,41,18,54,T,6,Snow,183
2012-12-21,38,34,30,30,28,25,92,83,64,29.82,29.76,29.66,10,7,0,28,15,37,0.01,8,Snow,176
2012-12-22,35,30,25,32,29,20,100,87,56,29.89,29.67,29.54,10,6,1,24,11,31,0.04,7,Snow,189
2012-12-23,38,34,29,32,29,25,92,84,64,29.90,29.73,29.55,10,5,0,37,14,47,0.04,8,Fog-Snow,210
2012-12-24,30,22,13,25,20,11,92,83,69,30.23,30.11,29.88,10,10,7,13,3,16,0.00,4,,169
2012-12-25,36,29,22,30,25,17,100,84,68,30.09,29.83,29.69,10,5,0,24,10,30,0.12,8,Fog-Snow,147
2012-12-26,35,28,20,30,27,20,100,93,82,30.04,29.79,29.66,10,7,0,14,5,17,0.01,7,Fog-Snow,246
2012-12-27,32,22,11,26,19,10,100,87,66,30.23,30.14,30.03,10,10,7,9,2,10,0.00,4,,154
2012-12-28,24,17,9,21,17,8,100,91,84,30.22,30.13,30.03,10,7,1,10,2,13,0.03,6,Fog-Rain-Snow,27
2012-12-29,29,23,17,23,20,16,100,90,84,30.15,30.11,30.02,10,8,3,7,3,8,0.01,7,Snow,338
2012-12-30,31,17,2,22,16,1,100,89,63,30.33,30.18,30.03,10,6,0,12,3,13,T,6,Fog-Snow,3
2012-12-31,21,11,1,18,9,-1,100,93,84,30.44,30.30,30.18,10,5,0,13,3,15,T,6,Fog-Snow,335